sensor_id;sensor_type;location;lat;lon;timestamp;pressure;altitude;pressure_sealevel;temperature;humidity
5872;BME280;2962;51.312;7.378;2024-02-26T00:00:57;95711.75;;;3.83;100.00
5872;BME280;2962;51.312;7.378;2024-02-26T00:03:23;95695.44;;;3.69;100.00
5872;BME280;2962;51.312;7.378;2024-02-26T00:05:48;95699.28;;;3.72;100.00
5872;BME280;2962;51.312;7.378;2024-02-26T00:08:13;95705.09;;;3.74;100.00
5872;BME280;2962;51.312;7.378;2024-02-26T00:10:38;95699.34;;;3.75;100.00
5872;BME280;2962;51.312;7.378;2024-02-26T00:13:04;95692.75;;;3.73;100.00
5872;BME280;2962;51.312;7.378;2024-02-26T00:15:30;95684.75;;;3.80;100.00
5872;BME280;2962;51.312;7.378;2024-02-26T00:17:55;95678.94;;;3.74;100.00
5872;BME280;2962;51.312;7.378;2024-02-26T00:20:20;95702.94;;;3.86;100.00
5872;BME280;2962;51.312;7.378;2024-02-26T00:22:45;95697.09;;;3.81;100.00
5872;BME280;2962;51.312;7.378;2024-02-26T00:25:11;95694.84;;;3.86;100.00
5872;BME280;2962;51.312;7.378;2024-02-26T00:27:37;95704.47;;;3.87;100.00
5872;BME280;2962;51.312;7.378;2024-02-26T00:30:04;95699.50;;;3.89;100.00
5872;BME280;2962;51.312;7.378;2024-02-26T00:32:30;95693.41;;;3.92;100.00
5872;BME280;2962;51.312;7.378;2024-02-26T00:34:55;95689.13;;;3.91;100.00
5872;BME280;2962;51.312;7.378;2024-02-26T00:37:20;95685.28;;;3.89;100.00
5872;BME280;2962;51.312;7.378;2024-02-26T00:39:46;95673.22;;;3.79;100.00
5872;BME280;2962;51.312;7.378;2024-02-26T00:42:11;95696.56;;;4.02;100.00
5872;BME280;2962;51.312;7.378;2024-02-26T00:44:37;95700.00;;;3.99;100.00
5872;BME280;2962;51.312;7.378;2024-02-26T00:47:02;95688.41;;;3.95;100.00
5872;BME280;2962;51.312;7.378;2024-02-26T00:49:27;95672.50;;;3.82;100.00
5872;BME280;2962;51.312;7.378;2024-02-26T00:51:53;95686.09;;;3.93;100.00
5872;BME280;2962;51.312;7.378;2024-02-26T00:54:18;95693.03;;;3.94;100.00
5872;BME280;2962;51.312;7.378;2024-02-26T00:56:43;95686.47;;;3.95;100.00
5872;BME280;2962;51.312;7.378;2024-02-26T00:59:09;95693.34;;;3.89;100.00
5872;BME280;2962;51.312;7.378;2024-02-26T01:01:34;95689.38;;;3.79;100.00
5872;BME280;2962;51.312;7.378;2024-02-26T01:04:00;95680.72;;;3.63;100.00
5872;BME280;2962;51.312;7.378;2024-02-26T01:06:25;95695.81;;;3.71;100.00
5872;BME280;2962;51.312;7.378;2024-02-26T01:08:50;95690.69;;;3.59;100.00
5872;BME280;2962;51.312;7.378;2024-02-26T01:11:16;95686.84;;;3.60;100.00
5872;BME280;2962;51.312;7.378;2024-02-26T01:13:41;95674.53;;;3.59;100.00
5872;BME280;2962;51.312;7.378;2024-02-26T01:16:06;95695.25;;;3.55;100.00
5872;BME280;2962;51.312;7.378;2024-02-26T01:18:31;95687.88;;;3.52;100.00
5872;BME280;2962;51.312;7.378;2024-02-26T01:20:57;95689.84;;;3.55;100.00
5872;BME280;2962;51.312;7.378;2024-02-26T01:23:22;95691.53;;;3.66;100.00
5872;BME280;2962;51.312;7.378;2024-02-26T01:25:47;95697.59;;;3.60;100.00
5872;BME280;2962;51.312;7.378;2024-02-26T01:28:14;95700.31;;;3.60;100.00
5872;BME280;2962;51.312;7.378;2024-02-26T01:30:39;95702.22;;;3.59;100.00
5872;BME280;2962;51.312;7.378;2024-02-26T01:33:04;95699.94;;;3.61;100.00
5872;BME280;2962;51.312;7.378;2024-02-26T01:35:29;95698.75;;;3.59;100.00
5872;BME280;2962;51.312;7.378;2024-02-26T01:37:55;95705.28;;;3.58;100.00
5872;BME280;2962;51.312;7.378;2024-02-26T01:40:21;95696.78;;;3.56;100.00
5872;BME280;2962;51.312;7.378;2024-02-26T01:42:46;95689.94;;;3.62;100.00
5872;BME280;2962;51.312;7.378;2024-02-26T01:45:16;95695.38;;;3.65;100.00
5872;BME280;2962;51.312;7.378;2024-02-26T01:47:50;95711.50;;;3.62;100.00
5872;BME280;2962;51.312;7.378;2024-02-26T01:50:16;95699.09;;;3.54;100.00
5872;BME280;2962;51.312;7.378;2024-02-26T01:52:42;95699.09;;;3.54;100.00
5872;BME280;2962;51.312;7.378;2024-02-26T01:55:08;95698.75;;;3.59;100.00
5872;BME280;2962;51.312;7.378;2024-02-26T01:57:33;95698.13;;;3.69;100.00
5872;BME280;2962;51.312;7.378;2024-02-26T01:59:59;95697.66;;;3.63;100.00
5872;BME280;2962;51.312;7.378;2024-02-26T02:02:24;95702.94;;;3.56;100.00
5872;BME280;2962;51.312;7.378;2024-02-26T02:04:50;95705.25;;;3.54;100.00
5872;BME280;2962;51.312;7.378;2024-02-26T02:07:16;95705.72;;;3.63;100.00
5872;BME280;2962;51.312;7.378;2024-02-26T02:09:42;95695.00;;;3.67;100.00
5872;BME280;2962;51.312;7.378;2024-02-26T02:12:08;95696.19;;;3.70;100.00
5872;BME280;2962;51.312;7.378;2024-02-26T02:14:33;95703.94;;;3.75;100.00
5872;BME280;2962;51.312;7.378;2024-02-26T02:16:58;95691.16;;;3.68;100.00
5872;BME280;2962;51.312;7.378;2024-02-26T02:19:23;95694.97;;;3.63;100.00
5872;BME280;2962;51.312;7.378;2024-02-26T02:21:49;95696.84;;;3.59;100.00
5872;BME280;2962;51.312;7.378;2024-02-26T02:24:14;95698.84;;;3.66;100.00
5872;BME280;2962;51.312;7.378;2024-02-26T02:26:39;95703.50;;;3.69;100.00
5872;BME280;2962;51.312;7.378;2024-02-26T02:29:06;95711.59;;;3.69;100.00
5872;BME280;2962;51.312;7.378;2024-02-26T02:31:32;95703.81;;;3.64;100.00
5872;BME280;2962;51.312;7.378;2024-02-26T02:33:58;95711.59;;;3.69;100.00
5872;BME280;2962;51.312;7.378;2024-02-26T02:36:23;95695.34;;;3.62;100.00
5872;BME280;2962;51.312;7.378;2024-02-26T02:38:49;95702.25;;;3.63;100.00
5872;BME280;2962;51.312;7.378;2024-02-26T02:41:15;95713.47;;;3.68;100.00
5872;BME280;2962;51.312;7.378;2024-02-26T02:43:41;95711.06;;;3.60;100.00
5872;BME280;2962;51.312;7.378;2024-02-26T02:46:06;95711.78;;;3.57;100.00
5872;BME280;2962;51.312;7.378;2024-02-26T02:48:31;95723.72;;;3.56;100.00
5872;BME280;2962;51.312;7.378;2024-02-26T02:50:56;95723.16;;;3.43;100.00
5872;BME280;2962;51.312;7.378;2024-02-26T02:53:21;95723.84;;;3.36;100.00
5872;BME280;2962;51.312;7.378;2024-02-26T02:55:47;95706.34;;;3.23;100.00
5872;BME280;2962;51.312;7.378;2024-02-26T02:58:12;95722.25;;;3.32;100.00
5872;BME280;2962;51.312;7.378;2024-02-26T03:00:37;95718.25;;;3.22;100.00
5872;BME280;2962;51.312;7.378;2024-02-26T03:03:03;95722.91;;;3.25;100.00
5872;BME280;2962;51.312;7.378;2024-02-26T03:05:29;95710.50;;;3.17;100.00
5872;BME280;2962;51.312;7.378;2024-02-26T03:07:54;95702.34;;;3.13;100.00
5872;BME280;2962;51.312;7.378;2024-02-26T03:10:19;95708.13;;;3.12;100.00
5872;BME280;2962;51.312;7.378;2024-02-26T03:12:45;95700.00;;;3.08;100.00
5872;BME280;2962;51.312;7.378;2024-02-26T03:15:10;95699.88;;;3.01;100.00
5872;BME280;2962;51.312;7.378;2024-02-26T03:17:36;95696.94;;;3.10;100.00
5872;BME280;2962;51.312;7.378;2024-02-26T03:20:02;95710.63;;;3.01;100.00
5872;BME280;2962;51.312;7.378;2024-02-26T03:22:30;95700.09;;;2.89;100.00
5872;BME280;2962;51.312;7.378;2024-02-26T03:24:55;95696.97;;;2.87;100.00
5872;BME280;2962;51.312;7.378;2024-02-26T03:27:20;95705.09;;;2.90;100.00
5872;BME280;2962;51.312;7.378;2024-02-26T03:29:46;95710.22;;;2.76;100.00
5872;BME280;2962;51.312;7.378;2024-02-26T03:32:12;95698.53;;;2.65;100.00
5872;BME280;2962;51.312;7.378;2024-02-26T03:34:37;95703.63;;;2.70;100.00
5872;BME280;2962;51.312;7.378;2024-02-26T03:37:05;95702.22;;;2.57;100.00
5872;BME280;2962;51.312;7.378;2024-02-26T03:39:31;95703.31;;;2.52;100.00
5872;BME280;2962;51.312;7.378;2024-02-26T03:41:56;95676.56;;;2.36;100.00
5872;BME280;2962;51.312;7.378;2024-02-26T03:44:21;95696.28;;;2.44;100.00
5872;BME280;2962;51.312;7.378;2024-02-26T03:46:47;95698.75;;;2.33;100.00
5872;BME280;2962;51.312;7.378;2024-02-26T03:49:12;95696.38;;;2.28;100.00
5872;BME280;2962;51.312;7.378;2024-02-26T03:51:38;95708.69;;;2.29;100.00
5872;BME280;2962;51.312;7.378;2024-02-26T03:54:03;95708.63;;;2.26;100.00
5872;BME280;2962;51.312;7.378;2024-02-26T03:56:29;95693.03;;;2.12;100.00
5872;BME280;2962;51.312;7.378;2024-02-26T03:58:54;95705.25;;;2.09;100.00
5872;BME280;2962;51.312;7.378;2024-02-26T04:01:19;95684.25;;;1.95;100.00
5872;BME280;2962;51.312;7.378;2024-02-26T04:03:45;95696.97;;;1.99;100.00
5872;BME280;2962;51.312;7.378;2024-02-26T04:06:11;95708.56;;;2.03;100.00
5872;BME280;2962;51.312;7.378;2024-02-26T04:08:37;95708.16;;;2.01;100.00
5872;BME280;2962;51.312;7.378;2024-02-26T04:11:03;95696.22;;;1.98;100.00
5872;BME280;2962;51.312;7.378;2024-02-26T04:13:32;95710.41;;;1.99;100.00
5872;BME280;2962;51.312;7.378;2024-02-26T04:15:57;95692.75;;;1.98;100.00
5872;BME280;2962;51.312;7.378;2024-02-26T04:18:23;95715.84;;;2.02;100.00
5872;BME280;2962;51.312;7.378;2024-02-26T04:20:48;95719.75;;;2.05;100.00
5872;BME280;2962;51.312;7.378;2024-02-26T04:23:13;95713.47;;;1.97;100.00
5872;BME280;2962;51.312;7.378;2024-02-26T04:25:39;95716.22;;;2.01;100.00
5872;BME280;2962;51.312;7.378;2024-02-26T04:28:04;95712.75;;;2.00;100.00
5872;BME280;2962;51.312;7.378;2024-02-26T04:30:29;95703.34;;;1.90;100.00
5872;BME280;2962;51.312;7.378;2024-02-26T04:32:55;95701.75;;;1.86;100.00
5872;BME280;2962;51.312;7.378;2024-02-26T04:35:20;95714.16;;;1.94;100.00
5872;BME280;2962;51.312;7.378;2024-02-26T04:37:45;95706.66;;;1.84;100.00
5872;BME280;2962;51.312;7.378;2024-02-26T04:40:11;95714.81;;;1.87;100.00
5872;BME280;2962;51.312;7.378;2024-02-26T04:42:36;95721.00;;;1.91;100.00
5872;BME280;2962;51.312;7.378;2024-02-26T04:45:01;95723.28;;;1.89;100.00
5872;BME280;2962;51.312;7.378;2024-02-26T04:47:27;95713.94;;;1.83;100.00
5872;BME280;2962;51.312;7.378;2024-02-26T04:49:52;95732.28;;;1.78;100.00
5872;BME280;2962;51.312;7.378;2024-02-26T04:52:18;95727.66;;;1.78;100.00
5872;BME280;2962;51.312;7.378;2024-02-26T04:54:44;95736.28;;;1.68;100.00
5872;BME280;2962;51.312;7.378;2024-02-26T04:57:09;95732.75;;;1.64;100.00
5872;BME280;2962;51.312;7.378;2024-02-26T04:59:34;95747.44;;;1.70;100.00
5872;BME280;2962;51.312;7.378;2024-02-26T05:01:59;95747.72;;;1.65;100.00
5872;BME280;2962;51.312;7.378;2024-02-26T05:04:25;95746.53;;;1.62;100.00
5872;BME280;2962;51.312;7.378;2024-02-26T05:06:50;95741.84;;;1.59;100.00
5872;BME280;2962;51.312;7.378;2024-02-26T05:09:15;95747.38;;;1.66;100.00
5872;BME280;2962;51.312;7.378;2024-02-26T05:11:41;95751.13;;;1.62;100.00
5872;BME280;2962;51.312;7.378;2024-02-26T05:14:06;95746.09;;;1.60;100.00
5872;BME280;2962;51.312;7.378;2024-02-26T05:16:31;95751.13;;;1.62;100.00
5872;BME280;2962;51.312;7.378;2024-02-26T05:18:57;95754.72;;;1.69;100.00
5872;BME280;2962;51.312;7.378;2024-02-26T05:21:22;95760.09;;;1.69;100.00
5872;BME280;2962;51.312;7.378;2024-02-26T05:23:48;95751.97;;;1.66;100.00
5872;BME280;2962;51.312;7.378;2024-02-26T05:26:22;95758.44;;;1.65;100.00
5872;BME280;2962;51.312;7.378;2024-02-26T05:28:48;95748.00;;;1.60;100.00
5872;BME280;2962;51.312;7.378;2024-02-26T05:31:13;95753.38;;;1.60;100.00
5872;BME280;2962;51.312;7.378;2024-02-26T05:33:39;95750.69;;;1.60;100.00
5872;BME280;2962;51.312;7.378;2024-02-26T05:36:04;95761.13;;;1.65;100.00
5872;BME280;2962;51.312;7.378;2024-02-26T05:38:30;95755.56;;;1.54;100.00
5872;BME280;2962;51.312;7.378;2024-02-26T05:40:57;95765.66;;;1.61;100.00
5872;BME280;2962;51.312;7.378;2024-02-26T05:43:22;95764.72;;;1.53;100.00
5872;BME280;2962;51.312;7.378;2024-02-26T05:45:47;95766.72;;;1.56;100.00
5872;BME280;2962;51.312;7.378;2024-02-26T05:48:12;95773.63;;;1.57;100.00
5872;BME280;2962;51.312;7.378;2024-02-26T05:50:38;95761.69;;;1.55;100.00
5872;BME280;2962;51.312;7.378;2024-02-26T05:53:03;95775.97;;;1.59;100.00
5872;BME280;2962;51.312;7.378;2024-02-26T05:55:28;95758.94;;;1.51;100.00
5872;BME280;2962;51.312;7.378;2024-02-26T05:57:54;95760.13;;;1.54;100.00
5872;BME280;2962;51.312;7.378;2024-02-26T06:00:19;95769.47;;;1.60;100.00
5872;BME280;2962;51.312;7.378;2024-02-26T06:02:44;95765.56;;;1.57;100.00
5872;BME280;2962;51.312;7.378;2024-02-26T06:05:10;95772.78;;;1.53;100.00
5872;BME280;2962;51.312;7.378;2024-02-26T06:07:35;95770.00;;;1.50;100.00
5872;BME280;2962;51.312;7.378;2024-02-26T06:10:01;95788.94;;;1.57;100.00
5872;BME280;2962;51.312;7.378;2024-02-26T06:12:27;95771.41;;;1.43;100.00
5872;BME280;2962;51.312;7.378;2024-02-26T06:14:53;95791.78;;;1.64;100.00
5872;BME280;2962;51.312;7.378;2024-02-26T06:17:19;95791.09;;;1.67;100.00
5872;BME280;2962;51.312;7.378;2024-02-26T06:19:44;95795.34;;;1.68;100.00
5872;BME280;2962;51.312;7.378;2024-02-26T06:22:09;95794.16;;;1.65;100.00
5872;BME280;2962;51.312;7.378;2024-02-26T06:24:36;95798.72;;;1.65;100.00
5872;BME280;2962;51.312;7.378;2024-02-26T06:27:02;95800.38;;;1.69;100.00
5872;BME280;2962;51.312;7.378;2024-02-26T06:29:28;95806.78;;;1.65;100.00
5872;BME280;2962;51.312;7.378;2024-02-26T06:31:53;95817.66;;;1.72;100.00
5872;BME280;2962;51.312;7.378;2024-02-26T06:34:18;95819.50;;;1.68;100.00
5872;BME280;2962;51.312;7.378;2024-02-26T06:36:43;95820.91;;;1.62;100.00
5872;BME280;2962;51.312;7.378;2024-02-26T06:39:09;95815.91;;;1.80;100.00
5872;BME280;2962;51.312;7.378;2024-02-26T06:41:35;95842.59;;;1.73;100.00
5872;BME280;2962;51.312;7.378;2024-02-26T06:44:01;95830.41;;;1.75;100.00
5872;BME280;2962;51.312;7.378;2024-02-26T06:46:27;95829.47;;;1.67;100.00
5872;BME280;2962;51.312;7.378;2024-02-26T06:48:55;95826.78;;;1.67;100.00
5872;BME280;2962;51.312;7.378;2024-02-26T06:51:21;95815.19;;;1.63;100.00
5872;BME280;2962;51.312;7.378;2024-02-26T06:53:46;95830.22;;;1.68;100.00
5872;BME280;2962;51.312;7.378;2024-02-26T06:56:12;95826.78;;;1.67;100.00
5872;BME280;2962;51.312;7.378;2024-02-26T06:58:37;95832.66;;;1.73;100.00
5872;BME280;2962;51.312;7.378;2024-02-26T07:01:03;95834.28;;;1.78;100.00
5872;BME280;2962;51.312;7.378;2024-02-26T07:03:29;95840.78;;;1.77;100.00
5872;BME280;2962;51.312;7.378;2024-02-26T07:05:55;95833.53;;;1.77;100.00
5872;BME280;2962;51.312;7.378;2024-02-26T07:08:20;95838.88;;;1.77;100.00
5872;BME280;2962;51.312;7.378;2024-02-26T07:10:46;95840.84;;;1.80;100.00
5872;BME280;2962;51.312;7.378;2024-02-26T07:13:11;95847.53;;;1.86;100.00
5872;BME280;2962;51.312;7.378;2024-02-26T07:15:37;95842.84;;;1.83;100.00
5872;BME280;2962;51.312;7.378;2024-02-26T07:18:02;95857.91;;;1.88;100.00
5872;BME280;2962;51.312;7.378;2024-02-26T07:20:29;95848.56;;;1.82;100.00
5872;BME280;2962;51.312;7.378;2024-02-26T07:22:55;95860.66;;;1.91;100.00
5872;BME280;2962;51.312;7.378;2024-02-26T07:25:20;95864.47;;;1.90;100.00
5872;BME280;2962;51.312;7.378;2024-02-26T07:27:46;95857.28;;;1.94;100.00
5872;BME280;2962;51.312;7.378;2024-02-26T07:30:11;95860.50;;;2.00;100.00
5872;BME280;2962;51.312;7.378;2024-02-26T07:32:37;95869.97;;;2.13;100.00
5872;BME280;2962;51.312;7.378;2024-02-26T07:35:02;95861.75;;;2.06;100.00
5872;BME280;2962;51.312;7.378;2024-02-26T07:37:28;95853.47;;;2.15;100.00
5872;BME280;2962;51.312;7.378;2024-02-26T07:39:53;95861.47;;;2.11;100.00
5872;BME280;2962;51.312;7.378;2024-02-26T07:42:19;95870.53;;;2.23;100.00
5872;BME280;2962;51.312;7.378;2024-02-26T07:44:44;95867.84;;;2.23;100.00
5872;BME280;2962;51.312;7.378;2024-02-26T07:47:10;95880.88;;;2.40;100.00
5872;BME280;2962;51.312;7.378;2024-02-26T07:49:35;95873.28;;;2.26;100.00
5872;BME280;2962;51.312;7.378;2024-02-26T07:52:00;95882.28;;;2.34;100.00
5872;BME280;2962;51.312;7.378;2024-02-26T07:54:25;95875.66;;;2.28;100.00
5872;BME280;2962;51.312;7.378;2024-02-26T07:56:51;95883.00;;;2.31;100.00
5872;BME280;2962;51.312;7.378;2024-02-26T07:59:16;95887.94;;;2.29;100.00
5872;BME280;2962;51.312;7.378;2024-02-26T08:01:41;95891.00;;;2.27;100.00
5872;BME280;2962;51.312;7.378;2024-02-26T08:04:07;95892.69;;;2.35;100.00
5872;BME280;2962;51.312;7.378;2024-02-26T08:06:32;95893.25;;;2.44;100.00
5872;BME280;2962;51.312;7.378;2024-02-26T08:08:57;95882.44;;;2.41;100.00
5872;BME280;2962;51.312;7.378;2024-02-26T08:11:23;95897.22;;;2.51;100.00
5872;BME280;2962;51.312;7.378;2024-02-26T08:13:48;95889.03;;;2.43;100.00
5872;BME280;2962;51.312;7.378;2024-02-26T08:16:13;95893.78;;;2.50;100.00
5872;BME280;2962;51.312;7.378;2024-02-26T08:18:38;95890.00;;;2.55;100.00
5872;BME280;2962;51.312;7.378;2024-02-26T08:21:04;95907.06;;;2.62;100.00
5872;BME280;2962;51.312;7.378;2024-02-26T08:23:29;95900.47;;;2.60;100.00
5872;BME280;2962;51.312;7.378;2024-02-26T08:25:56;95903.25;;;2.63;100.00
5872;BME280;2962;51.312;7.378;2024-02-26T08:28:21;95899.63;;;2.56;100.00
5872;BME280;2962;51.312;7.378;2024-02-26T08:30:46;95899.00;;;2.62;100.00
5872;BME280;2962;51.312;7.378;2024-02-26T08:33:11;95907.00;;;2.59;100.00
5872;BME280;2962;51.312;7.378;2024-02-26T08:35:38;95904.38;;;2.62;100.00
5872;BME280;2962;51.312;7.378;2024-02-26T08:38:04;95902.81;;;2.61;100.00
5872;BME280;2962;51.312;7.378;2024-02-26T08:40:29;95898.78;;;2.71;100.00
5872;BME280;2962;51.312;7.378;2024-02-26T08:42:54;95913.38;;;2.70;100.00
5872;BME280;2962;51.312;7.378;2024-02-26T08:45:20;95906.91;;;2.75;100.00
5872;BME280;2962;51.312;7.378;2024-02-26T08:47:45;95898.91;;;2.78;100.00
5872;BME280;2962;51.312;7.378;2024-02-26T08:50:11;95899.91;;;2.70;100.00
5872;BME280;2962;51.312;7.378;2024-02-26T08:52:37;95899.91;;;2.89;100.00
5872;BME280;2962;51.312;7.378;2024-02-26T08:55:03;95883.00;;;2.69;100.00
5872;BME280;2962;51.312;7.378;2024-02-26T08:57:28;95899.22;;;2.73;100.00
5872;BME280;2962;51.312;7.378;2024-02-26T08:59:54;95910.59;;;2.86;100.00
5872;BME280;2962;51.312;7.378;2024-02-26T09:02:19;95912.66;;;2.92;100.00
5872;BME280;2962;51.312;7.378;2024-02-26T09:04:45;95919.56;;;2.93;100.00
5872;BME280;2962;51.312;7.378;2024-02-26T09:07:10;95918.72;;;2.89;100.00
5872;BME280;2962;51.312;7.378;2024-02-26T09:09:35;95915.91;;;2.82;100.00
5872;BME280;2962;51.312;7.378;2024-02-26T09:12:01;95940.66;;;2.91;100.00
5872;BME280;2962;51.312;7.378;2024-02-26T09:14:27;95947.31;;;2.98;100.00
5872;BME280;2962;51.312;7.378;2024-02-26T09:16:52;95937.69;;;2.97;100.00
5872;BME280;2962;51.312;7.378;2024-02-26T09:19:17;95939.94;;;2.94;100.00
5872;BME280;2962;51.312;7.378;2024-02-26T09:21:43;95934.44;;;2.87;100.00
5872;BME280;2962;51.312;7.378;2024-02-26T09:24:09;95954.88;;;2.92;100.00
5872;BME280;2962;51.312;7.378;2024-02-26T09:26:34;95952.25;;;2.96;100.00
5872;BME280;2962;51.312;7.378;2024-02-26T09:29:00;95950.16;;;2.85;100.00
5872;BME280;2962;51.312;7.378;2024-02-26T09:31:25;95943.19;;;2.84;100.00
5872;BME280;2962;51.312;7.378;2024-02-26T09:33:50;95953.78;;;2.93;100.00
5872;BME280;2962;51.312;7.378;2024-02-26T09:36:15;95954.84;;;2.88;100.00
5872;BME280;2962;51.312;7.378;2024-02-26T09:38:41;95951.22;;;3.00;100.00
5872;BME280;2962;51.312;7.378;2024-02-26T09:41:06;95959.56;;;2.95;100.00
5872;BME280;2962;51.312;7.378;2024-02-26T09:43:35;95955.03;;;2.99;100.00
5872;BME280;2962;51.312;7.378;2024-02-26T09:46:05;95962.31;;;2.99;100.00
5872;BME280;2962;51.312;7.378;2024-02-26T09:48:31;95961.97;;;3.00;100.00
5872;BME280;2962;51.312;7.378;2024-02-26T09:50:56;95955.31;;;2.94;100.00
5872;BME280;2962;51.312;7.378;2024-02-26T09:53:22;95970.75;;;2.97;100.00
5872;BME280;2962;51.312;7.378;2024-02-26T09:55:48;95965.84;;;3.03;100.00
5872;BME280;2962;51.312;7.378;2024-02-26T09:58:13;95992.34;;;3.20;100.00
5872;BME280;2962;51.312;7.378;2024-02-26T10:00:47;95972.75;;;3.00;100.00
5872;BME280;2962;51.312;7.378;2024-02-26T10:03:17;95975.13;;;3.05;100.00
5872;BME280;2962;51.312;7.378;2024-02-26T10:05:44;95983.19;;;3.25;100.00
5872;BME280;2962;51.312;7.378;2024-02-26T10:08:10;95992.19;;;3.32;100.00
5872;BME280;2962;51.312;7.378;2024-02-26T10:10:36;95988.78;;;3.35;100.00
5872;BME280;2962;51.312;7.378;2024-02-26T10:13:03;95994.22;;;3.39;100.00
5872;BME280;2962;51.312;7.378;2024-02-26T10:15:29;95998.88;;;3.42;100.00
5872;BME280;2962;51.312;7.378;2024-02-26T10:17:54;95998.03;;;3.38;100.00
5872;BME280;2962;51.312;7.378;2024-02-26T10:20:19;96001.03;;;3.33;100.00
5872;BME280;2962;51.312;7.378;2024-02-26T10:22:48;96010.38;;;3.39;100.00
5872;BME280;2962;51.312;7.378;2024-02-26T10:25:13;96002.66;;;3.37;100.00
5872;BME280;2962;51.312;7.378;2024-02-26T10:27:42;96003.22;;;3.47;100.00
5872;BME280;2962;51.312;7.378;2024-02-26T10:30:21;96013.69;;;3.52;100.00
5872;BME280;2962;51.312;7.378;2024-02-26T10:32:48;96018.63;;;3.50;100.00
5872;BME280;2962;51.312;7.378;2024-02-26T10:35:18;95993.47;;;3.38;100.00
5872;BME280;2962;51.312;7.378;2024-02-26T10:37:44;96010.09;;;3.44;100.00
5872;BME280;2962;51.312;7.378;2024-02-26T10:40:13;96008.69;;;3.31;100.00
5872;BME280;2962;51.312;7.378;2024-02-26T10:42:38;96026.25;;;3.44;100.00
5872;BME280;2962;51.312;7.378;2024-02-26T10:45:05;96010.72;;;3.37;100.00
5872;BME280;2962;51.312;7.378;2024-02-26T10:47:31;96021.47;;;3.57;100.00
5872;BME280;2962;51.312;7.378;2024-02-26T10:49:58;96021.28;;;3.46;100.00
5872;BME280;2962;51.312;7.378;2024-02-26T10:52:25;96015.84;;;3.42;100.00
5872;BME280;2962;51.312;7.378;2024-02-26T10:54:53;96025.16;;;3.49;100.00
5872;BME280;2962;51.312;7.378;2024-02-26T10:57:19;96031.47;;;3.56;100.00
5872;BME280;2962;51.312;7.378;2024-02-26T10:59:46;96032.84;;;3.47;100.00
5872;BME280;2962;51.312;7.378;2024-02-26T11:02:13;96056.97;;;3.62;100.00
5872;BME280;2962;51.312;7.378;2024-02-26T11:04:39;96035.69;;;3.57;100.00
5872;BME280;2962;51.312;7.378;2024-02-26T11:07:05;96050.94;;;3.69;100.00
5872;BME280;2962;51.312;7.378;2024-02-26T11:09:32;96046.59;;;3.64;100.00
5872;BME280;2962;51.312;7.378;2024-02-26T11:11:58;96044.66;;;3.61;100.00
5872;BME280;2962;51.312;7.378;2024-02-26T11:14:24;96048.53;;;3.64;100.00
5872;BME280;2962;51.312;7.378;2024-02-26T11:16:51;96060.81;;;3.61;100.00
5872;BME280;2962;51.312;7.378;2024-02-26T11:19:16;96054.28;;;3.62;100.00
5872;BME280;2962;51.312;7.378;2024-02-26T11:21:43;96070.34;;;3.78;100.00
5872;BME280;2962;51.312;7.378;2024-02-26T11:24:15;96059.25;;;3.83;100.00
5872;BME280;2962;51.312;7.378;2024-02-26T11:26:51;96060.03;;;3.84;100.00
5872;BME280;2962;51.312;7.378;2024-02-26T11:29:26;96064.38;;;3.88;100.00
5872;BME280;2962;51.312;7.378;2024-02-26T11:31:53;96050.47;;;3.86;100.00
5872;BME280;2962;51.312;7.378;2024-02-26T11:34:18;96058.25;;;4.14;100.00
5872;BME280;2962;51.312;7.378;2024-02-26T11:36:44;96060.41;;;4.28;100.00
5872;BME280;2962;51.312;7.378;2024-02-26T11:39:11;96061.50;;;4.24;100.00
5872;BME280;2962;51.312;7.378;2024-02-26T11:41:38;96064.88;;;4.44;100.00
5872;BME280;2962;51.312;7.378;2024-02-26T11:44:04;96065.13;;;4.58;100.00
5872;BME280;2962;51.312;7.378;2024-02-26T11:46:33;96059.66;;;4.54;100.00
5872;BME280;2962;51.312;7.378;2024-02-26T11:51:53;96066.03;;;4.43;100.00
5872;BME280;2962;51.312;7.378;2024-02-26T11:54:53;96068.53;;;4.55;100.00
5872;BME280;2962;51.312;7.378;2024-02-26T11:57:29;96072.44;;;4.57;100.00
5872;BME280;2962;51.312;7.378;2024-02-26T11:59:56;96068.78;;;4.73;100.00
5872;BME280;2962;51.312;7.378;2024-02-26T12:02:47;96073.72;;;4.67;100.00
5872;BME280;2962;51.312;7.378;2024-02-26T12:05:19;96076.78;;;4.65;100.00
5872;BME280;2962;51.312;7.378;2024-02-26T12:07:49;96073.28;;;4.65;100.00
5872;BME280;2962;51.312;7.378;2024-02-26T12:10:26;96084.44;;;4.63;100.00
5872;BME280;2962;51.312;7.378;2024-02-26T12:13:02;96076.69;;;4.58;100.00
5872;BME280;2962;51.312;7.378;2024-02-26T12:15:38;96078.84;;;4.76;100.00
5872;BME280;2962;51.312;7.378;2024-02-26T12:18:06;96080.53;;;5.14;100.00
5872;BME280;2962;51.312;7.378;2024-02-26T12:20:32;96073.63;;;5.17;100.00
5872;BME280;2962;51.312;7.378;2024-02-26T12:22:58;96072.66;;;5.32;100.00
5872;BME280;2962;51.312;7.378;2024-02-26T12:25:25;96067.63;;;5.64;100.00
5872;BME280;2962;51.312;7.378;2024-02-26T12:27:51;96062.41;;;5.45;100.00
5872;BME280;2962;51.312;7.378;2024-02-26T12:30:17;96056.63;;;5.12;100.00
5872;BME280;2962;51.312;7.378;2024-02-26T12:32:43;96059.50;;;4.97;100.00
5872;BME280;2962;51.312;7.378;2024-02-26T12:35:09;96065.47;;;4.83;100.00
5872;BME280;2962;51.312;7.378;2024-02-26T12:37:34;96056.69;;;4.89;100.00
5872;BME280;2962;51.312;7.378;2024-02-26T12:40:03;96067.63;;;5.00;100.00
5872;BME280;2962;51.312;7.378;2024-02-26T12:42:31;96082.00;;;5.08;100.00
5872;BME280;2962;51.312;7.378;2024-02-26T12:44:58;96072.91;;;5.20;100.00
5872;BME280;2962;51.312;7.378;2024-02-26T12:47:23;96088.19;;;5.38;100.00
5872;BME280;2962;51.312;7.378;2024-02-26T12:49:49;96081.53;;;5.32;100.00
5872;BME280;2962;51.312;7.378;2024-02-26T12:52:16;96100.88;;;5.38;100.00
5872;BME280;2962;51.312;7.378;2024-02-26T12:54:42;96087.56;;;5.22;100.00
5872;BME280;2962;51.312;7.378;2024-02-26T12:57:08;96088.22;;;5.12;100.00
5872;BME280;2962;51.312;7.378;2024-02-26T12:59:35;96101.06;;;5.22;100.00
5872;BME280;2962;51.312;7.378;2024-02-26T13:02:01;96098.75;;;5.21;100.00
5872;BME280;2962;51.312;7.378;2024-02-26T13:04:29;96113.44;;;5.53;100.00
5872;BME280;2962;51.312;7.378;2024-02-26T13:06:55;96109.94;;;5.53;100.00
5872;BME280;2962;51.312;7.378;2024-02-26T13:09:20;96121.47;;;5.46;100.00
5872;BME280;2962;51.312;7.378;2024-02-26T13:11:53;96125.56;;;5.67;100.00
5872;BME280;2962;51.312;7.378;2024-02-26T13:14:19;96123.41;;;5.49;100.00
5872;BME280;2962;51.312;7.378;2024-02-26T13:16:45;96119.78;;;5.34;100.00
5872;BME280;2962;51.312;7.378;2024-02-26T13:19:19;96104.19;;;5.24;100.00